sensor_id;sensor_type;location;lat;lon;timestamp;pressure;altitude;pressure_sealevel;temperature;humidity
80851;BME280;70268;50.292;6.666;2023-09-30T00:01:55;97347.44;;;22.38;61.92
80851;BME280;70268;50.292;6.666;2023-09-30T00:04:24;97336.53;;;22.41;61.77
80851;BME280;70268;50.292;6.666;2023-09-30T00:06:55;97335.25;;;22.37;61.93
80851;BME280;70268;50.292;6.666;2023-09-30T00:09:23;97346.78;;;22.36;61.99
80851;BME280;70268;50.292;6.666;2023-09-30T00:11:52;97342.50;;;22.35;61.92
80851;BME280;70268;50.292;6.666;2023-09-30T00:14:24;97349.78;;;22.33;62.16
80851;BME280;70268;50.292;6.666;2023-09-30T00:16:52;97344.31;;;22.34;62.18
80851;BME280;70268;50.292;6.666;2023-09-30T00:19:21;97354.88;;;22.34;62.01
80851;BME280;70268;50.292;6.666;2023-09-30T00:21:50;97349.09;;;22.31;61.85
80851;BME280;70268;50.292;6.666;2023-09-30T00:24:19;97358.13;;;22.36;62.04
80851;BME280;70268;50.292;6.666;2023-09-30T00:26:48;97363.59;;;22.35;62.18
80851;BME280;70268;50.292;6.666;2023-09-30T00:29:18;97360.81;;;22.28;62.23
80851;BME280;70268;50.292;6.666;2023-09-30T00:31:48;97363.94;;;22.32;62.08
80851;BME280;70268;50.292;6.666;2023-09-30T00:34:17;97367.88;;;22.28;62.26
80851;BME280;70268;50.292;6.666;2023-09-30T00:36:46;97357.69;;;22.25;62.29
80851;BME280;70268;50.292;6.666;2023-09-30T00:39:15;97368.06;;;22.26;62.40
80851;BME280;70268;50.292;6.666;2023-09-30T00:41:44;97370.06;;;22.24;62.19
80851;BME280;70268;50.292;6.666;2023-09-30T00:44:13;97366.44;;;22.25;62.43
80851;BME280;70268;50.292;6.666;2023-09-30T00:46:42;97365.13;;;22.21;62.54
80851;BME280;70268;50.292;6.666;2023-09-30T00:49:13;97353.78;;;22.20;62.36
80851;BME280;70268;50.292;6.666;2023-09-30T00:51:44;97362.66;;;22.19;62.60
80851;BME280;70268;50.292;6.666;2023-09-30T00:54:15;97367.94;;;22.19;62.45
80851;BME280;70268;50.292;6.666;2023-09-30T00:56:46;97369.06;;;22.17;62.50
80851;BME280;70268;50.292;6.666;2023-09-30T00:59:15;97372.69;;;22.16;62.61
80851;BME280;70268;50.292;6.666;2023-09-30T01:01:45;97365.97;;;22.13;62.50
80851;BME280;70268;50.292;6.666;2023-09-30T01:04:15;97367.59;;;22.14;62.77
80851;BME280;70268;50.292;6.666;2023-09-30T01:06:45;97361.53;;;22.14;62.60
80851;BME280;70268;50.292;6.666;2023-09-30T01:09:14;97357.22;;;22.13;62.63
80851;BME280;70268;50.292;6.666;2023-09-30T01:11:43;97347.03;;;22.10;62.68
80851;BME280;70268;50.292;6.666;2023-09-30T01:14:26;97351.66;;;22.08;62.77
80851;BME280;70268;50.292;6.666;2023-09-30T01:16:55;97355.28;;;22.07;62.85
80851;BME280;70268;50.292;6.666;2023-09-30T01:19:26;97359.72;;;22.06;62.84
80851;BME280;70268;50.292;6.666;2023-09-30T01:21:57;97362.19;;;22.08;62.73
80851;BME280;70268;50.292;6.666;2023-09-30T01:24:38;97354.97;;;22.01;62.90
80851;BME280;70268;50.292;6.666;2023-09-30T01:27:09;97355.78;;;22.02;62.95
80851;BME280;70268;50.292;6.666;2023-09-30T01:29:38;97357.28;;;22.04;62.84
80851;BME280;70268;50.292;6.666;2023-09-30T01:32:06;97370.13;;;21.99;63.06
80851;BME280;70268;50.292;6.666;2023-09-30T01:34:37;97353.50;;;21.99;62.94
80851;BME280;70268;50.292;6.666;2023-09-30T01:37:07;97343.63;;;22.01;63.02
80851;BME280;70268;50.292;6.666;2023-09-30T01:39:36;97361.38;;;21.99;63.11
80851;BME280;70268;50.292;6.666;2023-09-30T01:42:05;97381.34;;;21.93;63.19
80851;BME280;70268;50.292;6.666;2023-09-30T01:44:34;97385.25;;;21.97;63.00
80851;BME280;70268;50.292;6.666;2023-09-30T01:47:02;97387.91;;;21.97;63.17
80851;BME280;70268;50.292;6.666;2023-09-30T01:49:31;97392.50;;;21.95;63.05
80851;BME280;70268;50.292;6.666;2023-09-30T01:52:00;97402.25;;;21.95;63.07
80851;BME280;70268;50.292;6.666;2023-09-30T01:54:31;97394.50;;;21.93;63.03
80851;BME280;70268;50.292;6.666;2023-09-30T01:57:00;97390.06;;;21.94;63.02
80851;BME280;70268;50.292;6.666;2023-09-30T01:59:31;97391.03;;;21.93;63.18
80851;BME280;70268;50.292;6.666;2023-09-30T02:02:00;97393.19;;;21.89;63.27
80851;BME280;70268;50.292;6.666;2023-09-30T02:04:30;97399.09;;;21.91;63.21
80851;BME280;70268;50.292;6.666;2023-09-30T02:06:59;97403.88;;;21.88;63.18
80851;BME280;70268;50.292;6.666;2023-09-30T02:09:28;97379.50;;;21.85;63.18
80851;BME280;70268;50.292;6.666;2023-09-30T02:11:58;97381.84;;;21.89;63.23
80851;BME280;70268;50.292;6.666;2023-09-30T02:14:27;97389.22;;;21.85;63.24
80851;BME280;70268;50.292;6.666;2023-09-30T02:16:56;97374.41;;;21.84;63.26
80851;BME280;70268;50.292;6.666;2023-09-30T02:19:25;97354.84;;;21.86;63.21
80851;BME280;70268;50.292;6.666;2023-09-30T02:21:57;97349.91;;;21.83;63.13
80851;BME280;70268;50.292;6.666;2023-09-30T02:24:26;97350.72;;;21.84;63.28
80851;BME280;70268;50.292;6.666;2023-09-30T02:26:55;97360.13;;;21.78;63.30
80851;BME280;70268;50.292;6.666;2023-09-30T02:29:25;97359.13;;;21.79;63.07
80851;BME280;70268;50.292;6.666;2023-09-30T02:31:54;97367.69;;;21.81;63.42
80851;BME280;70268;50.292;6.666;2023-09-30T02:34:23;97374.44;;;21.76;63.38
80851;BME280;70268;50.292;6.666;2023-09-30T02:36:52;97380.53;;;21.76;63.43
80851;BME280;70268;50.292;6.666;2023-09-30T02:39:22;97379.19;;;21.72;63.48
80851;BME280;70268;50.292;6.666;2023-09-30T02:41:52;97377.56;;;21.71;63.44
80851;BME280;70268;50.292;6.666;2023-09-30T02:44:21;97380.81;;;21.73;63.60
80851;BME280;70268;50.292;6.666;2023-09-30T02:46:51;97388.06;;;21.71;63.52
80851;BME280;70268;50.292;6.666;2023-09-30T02:49:21;97387.09;;;21.72;63.55
80851;BME280;70268;50.292;6.666;2023-09-30T02:51:50;97382.97;;;21.69;63.70
80851;BME280;70268;50.292;6.666;2023-09-30T02:54:18;97380.34;;;21.69;63.61
80851;BME280;70268;50.292;6.666;2023-09-30T02:56:47;97371.81;;;21.67;63.63
80851;BME280;70268;50.292;6.666;2023-09-30T02:59:16;97370.63;;;21.70;63.61
80851;BME280;70268;50.292;6.666;2023-09-30T03:01:46;97381.16;;;21.70;63.75
80851;BME280;70268;50.292;6.666;2023-09-30T03:04:16;97391.84;;;21.68;63.76
80851;BME280;70268;50.292;6.666;2023-09-30T03:06:46;97390.41;;;21.66;63.94
80851;BME280;70268;50.292;6.666;2023-09-30T03:09:16;97386.94;;;21.65;63.72
80851;BME280;70268;50.292;6.666;2023-09-30T03:11:45;97379.19;;;21.64;63.93
80851;BME280;70268;50.292;6.666;2023-09-30T03:14:14;97385.31;;;21.64;63.66
80851;BME280;70268;50.292;6.666;2023-09-30T03:16:43;97388.44;;;21.60;64.13
80851;BME280;70268;50.292;6.666;2023-09-30T03:19:12;97395.47;;;21.59;63.85
80851;BME280;70268;50.292;6.666;2023-09-30T03:21:45;97398.13;;;21.59;64.15
80851;BME280;70268;50.292;6.666;2023-09-30T03:24:14;97406.19;;;21.58;64.13
80851;BME280;70268;50.292;6.666;2023-09-30T03:26:43;97391.41;;;21.57;64.08
80851;BME280;70268;50.292;6.666;2023-09-30T03:29:11;97385.47;;;21.55;64.04
80851;BME280;70268;50.292;6.666;2023-09-30T03:31:41;97375.09;;;21.53;64.24
80851;BME280;70268;50.292;6.666;2023-09-30T03:34:09;97385.13;;;21.49;64.24
80851;BME280;70268;50.292;6.666;2023-09-30T03:36:39;97388.41;;;21.51;64.23
80851;BME280;70268;50.292;6.666;2023-09-30T03:39:10;97382.34;;;21.51;64.01
80851;BME280;70268;50.292;6.666;2023-09-30T03:41:42;97391.38;;;21.48;64.24
80851;BME280;70268;50.292;6.666;2023-09-30T03:44:11;97403.41;;;21.51;64.13
80851;BME280;70268;50.292;6.666;2023-09-30T03:46:40;97405.19;;;21.50;64.21
80851;BME280;70268;50.292;6.666;2023-09-30T03:49:09;97402.72;;;21.49;64.17
80851;BME280;70268;50.292;6.666;2023-09-30T03:51:38;97401.41;;;21.45;64.20
80851;BME280;70268;50.292;6.666;2023-09-30T03:54:06;97404.06;;;21.45;64.34
80851;BME280;70268;50.292;6.666;2023-09-30T03:56:37;97401.75;;;21.50;64.10
80851;BME280;70268;50.292;6.666;2023-09-30T03:59:06;97388.91;;;21.47;64.50
80851;BME280;70268;50.292;6.666;2023-09-30T04:01:36;97394.19;;;21.47;64.44
80851;BME280;70268;50.292;6.666;2023-09-30T04:04:08;97396.97;;;21.45;64.46
80851;BME280;70268;50.292;6.666;2023-09-30T04:06:37;97389.91;;;21.46;64.25
80851;BME280;70268;50.292;6.666;2023-09-30T04:09:06;97383.81;;;21.45;64.37
80851;BME280;70268;50.292;6.666;2023-09-30T04:11:39;97388.09;;;21.46;64.33
80851;BME280;70268;50.292;6.666;2023-09-30T04:14:09;97382.69;;;21.48;64.50
80851;BME280;70268;50.292;6.666;2023-09-30T04:16:39;97383.81;;;21.45;64.33
80851;BME280;70268;50.292;6.666;2023-09-30T04:19:08;97380.53;;;21.43;64.56
80851;BME280;70268;50.292;6.666;2023-09-30T04:21:38;97383.16;;;21.43;64.34
80851;BME280;70268;50.292;6.666;2023-09-30T04:24:07;97371.81;;;21.43;64.56
80851;BME280;70268;50.292;6.666;2023-09-30T04:26:36;97380.03;;;21.40;64.68
80851;BME280;70268;50.292;6.666;2023-09-30T04:29:06;97386.28;;;21.39;64.70
80851;BME280;70268;50.292;6.666;2023-09-30T04:31:38;97388.56;;;21.33;64.66
80851;BME280;70268;50.292;6.666;2023-09-30T04:34:09;97401.91;;;21.40;64.54
80851;BME280;70268;50.292;6.666;2023-09-30T04:36:38;97406.00;;;21.43;64.49
80851;BME280;70268;50.292;6.666;2023-09-30T04:39:06;97408.00;;;21.41;64.63
80851;BME280;70268;50.292;6.666;2023-09-30T04:41:35;97403.53;;;21.41;64.86
80851;BME280;70268;50.292;6.666;2023-09-30T04:44:05;97401.06;;;21.40;64.70
80851;BME280;70268;50.292;6.666;2023-09-30T04:46:35;97405.19;;;21.34;64.64
80851;BME280;70268;50.292;6.666;2023-09-30T04:49:07;97407.84;;;21.34;64.87
80851;BME280;70268;50.292;6.666;2023-09-30T04:51:36;97419.16;;;21.34;64.81
80851;BME280;70268;50.292;6.666;2023-09-30T04:54:07;97413.44;;;21.31;64.78
80851;BME280;70268;50.292;6.666;2023-09-30T04:56:36;97410.13;;;21.29;64.83
80851;BME280;70268;50.292;6.666;2023-09-30T04:59:06;97419.81;;;21.28;64.84
80851;BME280;70268;50.292;6.666;2023-09-30T05:01:36;97407.31;;;21.30;65.15
80851;BME280;70268;50.292;6.666;2023-09-30T05:04:05;97407.31;;;21.22;65.06
80851;BME280;70268;50.292;6.666;2023-09-30T05:06:34;97408.09;;;21.06;65.45
80851;BME280;70268;50.292;6.666;2023-09-30T05:09:03;97417.31;;;21.10;65.46
80851;BME280;70268;50.292;6.666;2023-09-30T05:11:34;97419.97;;;21.10;65.31
80851;BME280;70268;50.292;6.666;2023-09-30T05:14:03;97418.81;;;21.21;65.37
80851;BME280;70268;50.292;6.666;2023-09-30T05:16:32;97419.31;;;21.08;65.48
80851;BME280;70268;50.292;6.666;2023-09-30T05:19:03;97406.44;;;20.97;65.62
80851;BME280;70268;50.292;6.666;2023-09-30T05:21:32;97402.50;;;20.93;65.08
80851;BME280;70268;50.292;6.666;2023-09-30T05:24:04;97411.06;;;20.95;64.72
80851;BME280;70268;50.292;6.666;2023-09-30T05:26:33;97421.41;;;20.96;65.03
80851;BME280;70268;50.292;6.666;2023-09-30T05:29:02;97425.13;;;20.86;64.78
80851;BME280;70268;50.292;6.666;2023-09-30T05:31:31;97419.69;;;20.79;64.68
80851;BME280;70268;50.292;6.666;2023-09-30T05:33:59;97414.25;;;20.80;64.84
80851;BME280;70268;50.292;6.666;2023-09-30T05:36:32;97426.91;;;20.77;64.88
80851;BME280;70268;50.292;6.666;2023-09-30T05:39:02;97432.19;;;20.85;64.61
80851;BME280;70268;50.292;6.666;2023-09-30T05:41:32;97429.88;;;20.82;65.61
80851;BME280;70268;50.292;6.666;2023-09-30T05:44:00;97428.56;;;20.78;65.85
80851;BME280;70268;50.292;6.666;2023-09-30T05:46:30;97425.41;;;20.74;66.36
80851;BME280;70268;50.292;6.666;2023-09-30T05:48:59;97420.69;;;20.86;66.51
80851;BME280;70268;50.292;6.666;2023-09-30T05:51:29;97432.50;;;20.74;65.67
80851;BME280;70268;50.292;6.666;2023-09-30T05:53:59;97439.88;;;20.70;65.82
80851;BME280;70268;50.292;6.666;2023-09-30T05:56:28;97450.53;;;20.69;65.06
80851;BME280;70268;50.292;6.666;2023-09-30T05:58:56;97454.63;;;20.71;64.46
80851;BME280;70268;50.292;6.666;2023-09-30T06:01:25;97450.00;;;20.57;64.46
80851;BME280;70268;50.292;6.666;2023-09-30T06:03:56;97446.69;;;20.55;64.28
80851;BME280;70268;50.292;6.666;2023-09-30T06:06:24;97437.03;;;20.55;63.89
80851;BME280;70268;50.292;6.666;2023-09-30T06:08:54;97445.63;;;20.39;63.98
80851;BME280;70268;50.292;6.666;2023-09-30T06:11:24;97452.41;;;20.50;63.32
80851;BME280;70268;50.292;6.666;2023-09-30T06:13:56;97447.53;;;20.55;62.71
80851;BME280;70268;50.292;6.666;2023-09-30T06:16:26;97458.72;;;20.31;63.27
80851;BME280;70268;50.292;6.666;2023-09-30T06:18:55;97459.28;;;20.43;63.17
80851;BME280;70268;50.292;6.666;2023-09-30T06:21:25;97463.53;;;20.36;62.71
80851;BME280;70268;50.292;6.666;2023-09-30T06:23:56;97459.91;;;20.37;62.66
80851;BME280;70268;50.292;6.666;2023-09-30T06:26:26;97472.22;;;20.36;62.10
80851;BME280;70268;50.292;6.666;2023-09-30T06:28:56;97446.78;;;20.37;61.17
80851;BME280;70268;50.292;6.666;2023-09-30T06:31:25;97448.22;;;20.31;61.10
80851;BME280;70268;50.292;6.666;2023-09-30T06:33:55;97446.78;;;20.37;61.08
80851;BME280;70268;50.292;6.666;2023-09-30T06:36:26;97441.88;;;20.42;61.18
80851;BME280;70268;50.292;6.666;2023-09-30T06:38:54;97435.59;;;20.35;60.73
80851;BME280;70268;50.292;6.666;2023-09-30T06:41:23;97436.44;;;20.35;60.68
80851;BME280;70268;50.292;6.666;2023-09-30T06:43:54;97441.31;;;20.30;60.90
80851;BME280;70268;50.292;6.666;2023-09-30T06:46:24;97443.13;;;20.30;60.66
80851;BME280;70268;50.292;6.666;2023-09-30T06:48:52;97456.88;;;20.23;61.28
80851;BME280;70268;50.292;6.666;2023-09-30T06:51:21;97468.97;;;20.42;61.78
80851;BME280;70268;50.292;6.666;2023-09-30T06:53:50;97477.78;;;20.33;61.67
80851;BME280;70268;50.292;6.666;2023-09-30T06:56:19;97481.03;;;20.27;61.57
80851;BME280;70268;50.292;6.666;2023-09-30T06:58:47;97480.88;;;20.28;60.92
80851;BME280;70268;50.292;6.666;2023-09-30T07:01:18;97492.03;;;20.31;61.02
80851;BME280;70268;50.292;6.666;2023-09-30T07:03:46;97494.16;;;20.27;61.32
80851;BME280;70268;50.292;6.666;2023-09-30T07:06:22;97486.13;;;20.28;60.72
80851;BME280;70268;50.292;6.666;2023-09-30T07:08:51;97464.44;;;20.26;60.94
80851;BME280;70268;50.292;6.666;2023-09-30T07:11:27;97464.44;;;20.26;60.84
80851;BME280;70268;50.292;6.666;2023-09-30T07:13:56;97468.66;;;20.19;60.29
80851;BME280;70268;50.292;6.666;2023-09-30T07:16:26;97482.00;;;20.26;60.83
80851;BME280;70268;50.292;6.666;2023-09-30T07:18:55;97476.03;;;20.16;60.92
80851;BME280;70268;50.292;6.666;2023-09-30T07:21:24;97479.63;;;20.15;60.79
80851;BME280;70268;50.292;6.666;2023-09-30T07:23:53;97485.56;;;20.17;60.71
80851;BME280;70268;50.292;6.666;2023-09-30T07:26:23;97491.81;;;20.16;61.45
80851;BME280;70268;50.292;6.666;2023-09-30T07:28:52;97489.97;;;20.16;61.03
80851;BME280;70268;50.292;6.666;2023-09-30T07:31:24;97492.56;;;20.08;61.22
80851;BME280;70268;50.292;6.666;2023-09-30T07:33:54;97481.06;;;20.09;60.93
80851;BME280;70268;50.292;6.666;2023-09-30T07:36:23;97480.34;;;19.99;61.04
80851;BME280;70268;50.292;6.666;2023-09-30T07:38:52;97477.44;;;20.02;60.75
80851;BME280;70268;50.292;6.666;2023-09-30T07:41:21;97489.56;;;20.03;60.72
80851;BME280;70268;50.292;6.666;2023-09-30T07:43:50;97493.31;;;20.00;61.39
80851;BME280;70268;50.292;6.666;2023-09-30T07:46:19;97492.34;;;20.01;61.34
80851;BME280;70268;50.292;6.666;2023-09-30T07:48:47;97491.53;;;20.01;61.31
80851;BME280;70268;50.292;6.666;2023-09-30T07:51:18;97483.97;;;19.98;61.56
80851;BME280;70268;50.292;6.666;2023-09-30T07:53:46;97486.00;;;19.94;61.62
80851;BME280;70268;50.292;6.666;2023-09-30T07:56:15;97493.75;;;19.96;61.60
80851;BME280;70268;50.292;6.666;2023-09-30T07:58:44;97502.06;;;19.91;62.16
80851;BME280;70268;50.292;6.666;2023-09-30T08:01:12;97507.84;;;19.95;61.32
80851;BME280;70268;50.292;6.666;2023-09-30T08:03:42;97502.47;;;19.96;61.94
80851;BME280;70268;50.292;6.666;2023-09-30T08:06:11;97506.19;;;19.93;62.33
80851;BME280;70268;50.292;6.666;2023-09-30T08:08:41;97520.97;;;19.95;62.48
80851;BME280;70268;50.292;6.666;2023-09-30T08:11:12;97526.53;;;19.91;61.96
80851;BME280;70268;50.292;6.666;2023-09-30T08:13:41;97525.19;;;19.87;61.61
80851;BME280;70268;50.292;6.666;2023-09-30T08:16:10;97527.97;;;19.86;61.52
80851;BME280;70268;50.292;6.666;2023-09-30T08:18:39;97528.91;;;19.85;61.92
80851;BME280;70268;50.292;6.666;2023-09-30T08:21:09;97528.78;;;19.86;61.67
80851;BME280;70268;50.292;6.666;2023-09-30T08:23:39;97521.03;;;19.85;61.69
80851;BME280;70268;50.292;6.666;2023-09-30T08:26:09;97529.91;;;19.84;61.88
80851;BME280;70268;50.292;6.666;2023-09-30T08:28:37;97511.53;;;19.84;61.75
80851;BME280;70268;50.292;6.666;2023-09-30T08:31:06;97505.69;;;19.90;61.35
80851;BME280;70268;50.292;6.666;2023-09-30T08:33:36;97507.47;;;19.89;62.03
80851;BME280;70268;50.292;6.666;2023-09-30T08:36:07;97514.22;;;19.92;61.86
80851;BME280;70268;50.292;6.666;2023-09-30T08:38:38;97514.53;;;19.89;61.81
80851;BME280;70268;50.292;6.666;2023-09-30T08:41:09;97523.59;;;19.95;62.12
80851;BME280;70268;50.292;6.666;2023-09-30T08:43:39;97519.41;;;19.84;62.14
80851;BME280;70268;50.292;6.666;2023-09-30T08:46:09;97534.72;;;19.88;61.75
80851;BME280;70268;50.292;6.666;2023-09-30T08:48:38;97523.16;;;19.81;61.85
80851;BME280;70268;50.292;6.666;2023-09-30T08:51:07;97528.63;;;19.88;61.74
80851;BME280;70268;50.292;6.666;2023-09-30T08:53:37;97526.84;;;19.88;61.96
80851;BME280;70268;50.292;6.666;2023-09-30T08:56:06;97531.94;;;19.90;61.84
80851;BME280;70268;50.292;6.666;2023-09-30T08:58:39;97527.81;;;19.87;62.03
80851;BME280;70268;50.292;6.666;2023-09-30T09:01:08;97523.00;;;19.83;62.56
80851;BME280;70268;50.292;6.666;2023-09-30T09:03:38;97521.13;;;19.93;61.90
80851;BME280;70268;50.292;6.666;2023-09-30T09:06:07;97519.44;;;20.02;61.97
80851;BME280;70268;50.292;6.666;2023-09-30T09:08:36;97523.47;;;20.14;62.07
80851;BME280;70268;50.292;6.666;2023-09-30T09:11:05;97518.75;;;20.00;62.99
80851;BME280;70268;50.292;6.666;2023-09-30T09:13:47;97517.81;;;20.09;61.72
80851;BME280;70268;50.292;6.666;2023-09-30T09:16:17;97511.16;;;20.15;61.97
80851;BME280;70268;50.292;6.666;2023-09-30T09:18:47;97516.09;;;20.18;60.95
80851;BME280;70268;50.292;6.666;2023-09-30T09:21:17;97513.31;;;20.19;61.37
80851;BME280;70268;50.292;6.666;2023-09-30T09:23:49;97511.34;;;20.21;61.05
80851;BME280;70268;50.292;6.666;2023-09-30T09:26:24;97510.22;;;20.24;61.53
80851;BME280;70268;50.292;6.666;2023-09-30T09:28:58;97517.44;;;20.22;60.45
80851;BME280;70268;50.292;6.666;2023-09-30T09:31:28;97513.50;;;20.26;60.12
80851;BME280;70268;50.292;6.666;2023-09-30T09:33:57;97503.47;;;20.21;60.57
80851;BME280;70268;50.292;6.666;2023-09-30T09:36:38;97518.56;;;20.19;61.17
80851;BME280;70268;50.292;6.666;2023-09-30T09:39:07;97520.69;;;20.16;61.04
80851;BME280;70268;50.292;6.666;2023-09-30T09:41:49;97513.47;;;20.18;61.23
80851;BME280;70268;50.292;6.666;2023-09-30T09:44:21;97515.94;;;20.19;61.94
80851;BME280;70268;50.292;6.666;2023-09-30T09:46:50;97510.19;;;20.16;61.38
80851;BME280;70268;50.292;6.666;2023-09-30T09:49:21;97506.09;;;20.21;60.61
80851;BME280;70268;50.292;6.666;2023-09-30T09:51:52;97513.50;;;20.26;60.54
80851;BME280;70268;50.292;6.666;2023-09-30T09:54:22;97510.41;;;20.31;60.72
80851;BME280;70268;50.292;6.666;2023-09-30T09:56:53;97503.69;;;20.28;60.48
80851;BME280;70268;50.292;6.666;2023-09-30T09:59:25;97500.06;;;20.29;61.28
80851;BME280;70268;50.292;6.666;2023-09-30T10:01:54;97501.88;;;20.28;61.44
80851;BME280;70268;50.292;6.666;2023-09-30T10:04:24;97501.25;;;20.35;61.28
80851;BME280;70268;50.292;6.666;2023-09-30T10:06:53;97507.09;;;20.47;62.81
80851;BME280;70268;50.292;6.666;2023-09-30T10:09:24;97500.53;;;20.51;61.85
80851;BME280;70268;50.292;6.666;2023-09-30T10:11:58;97507.75;;;20.49;62.04
80851;BME280;70268;50.292;6.666;2023-09-30T10:14:32;97493.13;;;20.46;61.71
80851;BME280;70268;50.292;6.666;2023-09-30T10:17:01;97492.53;;;20.60;61.12
80851;BME280;70268;50.292;6.666;2023-09-30T10:19:31;97497.31;;;20.65;61.07
80851;BME280;70268;50.292;6.666;2023-09-30T10:22:22;97493.22;;;20.62;60.21
80851;BME280;70268;50.292;6.666;2023-09-30T10:24:55;97502.00;;;20.79;60.17
80851;BME280;70268;50.292;6.666;2023-09-30T10:27:29;97502.53;;;20.91;60.22
80851;BME280;70268;50.292;6.666;2023-09-30T10:30:06;97515.59;;;21.01;60.32
80851;BME280;70268;50.292;6.666;2023-09-30T10:33:08;97524.44;;;21.00;60.91
80851;BME280;70268;50.292;6.666;2023-09-30T10:35:45;97528.72;;;21.01;60.57
80851;BME280;70268;50.292;6.666;2023-09-30T10:38:41;97533.66;;;21.04;60.56
80851;BME280;70268;50.292;6.666;2023-09-30T10:41:10;97530.41;;;21.10;60.50
80851;BME280;70268;50.292;6.666;2023-09-30T10:43:40;97522.19;;;21.13;60.54
80851;BME280;70268;50.292;6.666;2023-09-30T10:46:33;97520.84;;;21.09;60.14
80851;BME280;70268;50.292;6.666;2023-09-30T10:49:30;97528.25;;;21.14;59.91
80851;BME280;70268;50.292;6.666;2023-09-30T10:52:03;97528.78;;;21.18;59.69
80851;BME280;70268;50.292;6.666;2023-09-30T10:54:32;97517.59;;;21.15;59.59
80851;BME280;70268;50.292;6.666;2023-09-30T10:57:02;97510.22;;;21.19;58.68
80851;BME280;70268;50.292;6.666;2023-09-30T10:59:31;97504.97;;;21.19;58.38
80851;BME280;70268;50.292;6.666;2023-09-30T11:02:18;97503.03;;;21.29;58.04
80851;BME280;70268;50.292;6.666;2023-09-30T11:04:48;97505.66;;;21.29;57.59
80851;BME280;70268;50.292;6.666;2023-09-30T11:07:22;97503.66;;;21.31;57.32
80851;BME280;70268;50.292;6.666;2023-09-30T11:09:53;97501.84;;;21.32;57.10
80851;BME280;70268;50.292;6.666;2023-09-30T11:12:23;97503.84;;;21.38;56.74
80851;BME280;70268;50.292;6.666;2023-09-30T11:14:59;97510.09;;;21.45;56.79
80851;BME280;70268;50.292;6.666;2023-09-30T11:17:30;97507.47;;;21.54;56.57
80851;BME280;70268;50.292;6.666;2023-09-30T11:19:59;97509.66;;;21.58;56.24
80851;BME280;70268;50.292;6.666;2023-09-30T11:22:28;97504.88;;;21.62;56.11
80851;BME280;70268;50.292;6.666;2023-09-30T11:24:57;97507.66;;;21.60;56.46
80851;BME280;70268;50.292;6.666;2023-09-30T11:27:26;97507.50;;;21.62;56.26
80851;BME280;70268;50.292;6.666;2023-09-30T11:29:55;97487.44;;;21.61;56.29
80851;BME280;70268;50.292;6.666;2023-09-30T11:32:26;97480.03;;;21.64;56.28
80851;BME280;70268;50.292;6.666;2023-09-30T11:34:58;97481.19;;;21.62;55.91
80851;BME280;70268;50.292;6.666;2023-09-30T11:37:31;97491.88;;;21.68;55.63
80851;BME280;70268;50.292;6.666;2023-09-30T11:40:12;97478.38;;;21.72;55.34
80851;BME280;70268;50.292;6.666;2023-09-30T11:42:42;97473.97;;;21.72;55.65
80851;BME280;70268;50.292;6.666;2023-09-30T11:45:19;97481.22;;;21.78;55.59
80851;BME280;70268;50.292;6.666;2023-09-30T11:47:48;97478.06;;;21.66;55.61
80851;BME280;70268;50.292;6.666;2023-09-30T11:50:19;97467.50;;;21.33;55.67
80851;BME280;70268;50.292;6.666;2023-09-30T11:52:47;97459.28;;;21.28;56.26
80851;BME280;70268;50.292;6.666;2023-09-30T11:55:16;97468.97;;;21.44;55.77
80851;BME280;70268;50.292;6.666;2023-09-30T11:57:47;97471.66;;;21.52;55.44
80851;BME280;70268;50.292;6.666;2023-09-30T12:00:17;97467.72;;;21.57;54.81
80851;BME280;70268;50.292;6.666;2023-09-30T12:02:46;97467.22;;;21.61;54.76
80851;BME280;70268;50.292;6.666;2023-09-30T12:05:15;97474.63;;;21.66;54.67
80851;BME280;70268;50.292;6.666;2023-09-30T12:07:45;97468.34;;;21.67;54.50
80851;BME280;70268;50.292;6.666;2023-09-30T12:10:14;97470.81;;;21.68;54.49
80851;BME280;70268;50.292;6.666;2023-09-30T12:12:43;97471.66;;;21.69;54.35
80851;BME280;70268;50.292;6.666;2023-09-30T12:15:12;97472.47;;;21.69;54.25
80851;BME280;70268;50.292;6.666;2023-09-30T12:17:41;97482.19;;;21.69;54.29
80851;BME280;70268;50.292;6.666;2023-09-30T12:20:10;97483.00;;;21.69;54.20
80851;BME280;70268;50.292;6.666;2023-09-30T12:22:41;97470.81;;;21.60;54.30
80851;BME280;70268;50.292;6.666;2023-09-30T12:25:12;97460.94;;;21.62;54.08
80851;BME280;70268;50.292;6.666;2023-09-30T12:27:40;97459.63;;;21.66;53.75
80851;BME280;70268;50.292;6.666;2023-09-30T12:30:10;97460.44;;;21.67;53.52
80851;BME280;70268;50.292;6.666;2023-09-30T12:32:41;97459.97;;;21.72;53.38
80851;BME280;70268;50.292;6.666;2023-09-30T12:35:10;97464.06;;;21.74;53.18
80851;BME280;70268;50.292;6.666;2023-09-30T12:37:39;97451.72;;;21.75;53.08
80851;BME280;70268;50.292;6.666;2023-09-30T12:40:11;97442.88;;;21.76;52.92
80851;BME280;70268;50.292;6.666;2023-09-30T12:42:44;97439.28;;;21.77;52.98
80851;BME280;70268;50.292;6.666;2023-09-30T12:45:12;97445.53;;;21.76;52.97
80851;BME280;70268;50.292;6.666;2023-09-30T12:47:41;97441.06;;;21.76;53.21
80851;BME280;70268;50.292;6.666;2023-09-30T12:50:10;97438.72;;;21.73;52.86
80851;BME280;70268;50.292;6.666;2023-09-30T12:52:39;97439.91;;;21.71;52.89
80851;BME280;70268;50.292;6.666;2023-09-30T12:55:08;97428.53;;;21.70;53.02
80851;BME280;70268;50.292;6.666;2023-09-30T12:57:40;97433.81;;;21.70;52.67
80851;BME280;70268;50.292;6.666;2023-09-30T13:00:10;97432.19;;;21.69;52.73
80851;BME280;70268;50.292;6.666;2023-09-30T13:02:38;97426.06;;;21.68;52.84
80851;BME280;70268;50.292;6.666;2023-09-30T13:05:08;97428.53;;;21.70;52.83
80851;BME280;70268;50.292;6.666;2023-09-30T13:07:37;97422.47;;;21.69;52.65
80851;BME280;70268;50.292;6.666;2023-09-30T13:10:06;97422.28;;;21.71;52.35
80851;BME280;70268;50.292;6.666;2023-09-30T13:12:36;97413.41;;;21.72;52.30
80851;BME280;70268;50.292;6.666;2023-09-30T13:15:07;97413.25;;;21.74;52.08
80851;BME280;70268;50.292;6.666;2023-09-30T13:17:36;97410.63;;;21.74;52.44